메인 페이지
METAR-TAF:

METAR-TAF

공항 :

Guymon, 오클라호마, 미국

위도: 36-40-54N, 경도: 101-30-19W, 고도: 952m

현재 날씨관측

예보는 32분 전, 18:53시(UTC)에 발표되었습니다.
남남서20kt, 순간 최대 풍속 28kt
온도 23°C
습도 22%
기압 1008 hPa
시정: 16.1km
맑음

METAR: KGUY 191853Z AUTO 20020G28KT 10SM CLR 23/00 A2978 RMK AO2 PK WND 18029/1834 SLP058 T02280000

시각: 13:25 (19:25 UTC)

예보

예보는 2 시간 2분 전, 17:23시(UTC)에 발표되었습니다.
예보 대상 시간: 19일 18시부터 20일 18시까지 (UTC)
16kt
시정: 10km
맑음
20일 1100시부터 (UTC)
남남서7kt
시정: 10km
고도 20000ft 상공 구름 많음

TAF: KGUY 191723Z 1918/2018 18016KT P6SM SKC FM201100 21007KT P6SM BKN200

4,000개 이상의 공항 관측 자료 및 예보 (METAR 및 TAF 보고).

지도상에서 검색 가능한 기상관측소가 노란 점과 빨간 점으로 표시되어 있습니다.

기상관측소 명을 보려면 표시 위로 마우스를 이동하세요.

날씨 관측과 예보를 보려면 클릭하세요.

지도 변경 : 확대하려면 엑스 표시가 있는 녹색 버튼, 축소하려면 빼기 표시가 있는 녹색 버튼, 다음 페이지의 지도를 보려면 녹색 화살표를 클릭하세요.


METAR-TAF: